UPSVAC Airport Information Service

Licenciado Gustaavo Diaz Ordaz International

ICAO: MMPR Country: Mexico, NA
Latitude: 20.6801 Longitude: -105.254
Latest Arrival : UPSPI9107 (PHNL-MMPR) Latest Departure : UPS458763 (MMPR-KSDF)


WX CaptureLIVE
Data provided by noaa.gov | Fetched at 14:53:09

METAR : MMPR 141346Z 36003KT 15SM SCT025 19/17 A2993 RMK 8/500 LWR ST N-NW

TAF : MMPR 141059Z 1412/1518 03005KT P6SM SCT020 TX28/1421Z TN19/1412Z FM141600 21010KT P6SM SCT200 FM150300 02005KT P6SM SCT020 FM151600 21010KT P6SM SCT200


Runway Data for MMPR
Data provided by openaviationdata.com

Runway ID Mag Var Hdg Length Elevation Surface ILS Freq ILS Id ILS Slope
4 9 38° 10169 ft 23 ft Asphalt -- -- --
22 9 218° 10169 ft 23 ft Asphalt -- -- --

Licenciado Gustaavo Diaz Ordaz International, Mexico, NA
Use only for reference purposes



Not for navigational purposes.